Time;durP1;ratioP1;P1;durP2;ratioP2;P2;SDS_P1;SDS_P2;PMS_P1;PMS_P2;Temp;Humidity;BMP_temperature;BMP_pressure;BME280_temperature;BME280_humidity;BME280_pressure;Samples;Min_cycle;Max_cycle;Signal;HPM_P1;HPM_P2
2022/01/15 00:02:01;;;;;;;;;;;;;;;4.94;59.46;100634.50;4455258;32;19972;-90
2022/01/15 00:04:26;;;;;;;;;;;;;;;4.90;59.45;100632.78;4454208;32;20270;-89
2022/01/15 00:06:52;;;;;;;;;;;;;;;4.77;59.44;100635.28;4454001;32;20003;-90
2022/01/15 00:09:18;;;;;;;;;;;;;;;4.80;59.45;100630.16;4440787;32;22843;-90
2022/01/15 00:11:44;;;;;;;;;;;;;;;4.73;59.45;100643.84;4441329;32;20016;-90
2022/01/15 00:14:20;;;;;;;;;;;;;;;4.75;59.45;100640.44;4441609;32;20590;-90
2022/01/15 00:16:47;;;;;;;;;;;;;;;4.52;59.43;100650.63;4442431;32;19992;-91
2022/01/15 00:19:14;;;;;;;;;;;;;;;4.65;59.44;100648.09;4441878;32;20621;-90
2022/01/15 00:21:39;;;;;;;;;;;;;;;4.65;59.44;100642.94;4441589;32;19989;-89
2022/01/15 00:24:05;;;;;;;;;;;;;;;4.71;59.43;100641.25;4454107;32;20015;-90
2022/01/15 00:26:30;;;;;;;;;;;;;;;4.71;59.43;100653.28;4441118;32;20014;-90
2022/01/15 00:28:56;;;;;;;;;;;;;;;4.52;59.43;100650.63;4441069;32;20330;-90
2022/01/15 00:31:21;;;;;;;;;;;;;;;4.60;59.44;100658.38;4455526;32;19992;-89
2022/01/15 00:33:46;;;;;;;;;;;;;;;4.73;59.45;100652.47;4454109;32;19985;-92
2022/01/15 00:36:11;;;;;;;;;;;;;;;4.60;59.43;100659.25;4440818;32;20454;-90
2022/01/15 00:38:37;;;;;;;;;;;;;;;4.54;59.43;100655.78;4440542;32;20030;-89
2022/01/15 00:41:02;;;;;;;;;;;;;;;4.51;59.43;100656.63;4453419;32;20005;-90
2022/01/15 00:43:27;;;;;;;;;;;;;;;4.61;59.43;100660.97;4440046;32;19997;-87
2022/01/15 00:45:55;;;;;;;;;;;;;;;4.64;59.44;100665.28;4452555;32;20323;-87
2022/01/15 00:48:20;;;;;;;;;;;;;;;4.55;59.43;100657.50;4454540;32;20004;-87
2022/01/15 00:50:46;;;;;;;;;;;;;;;4.61;59.44;100665.28;4440519;32;20007;-89
2022/01/15 00:53:11;;;;;;;;;;;;;;;4.66;59.44;100673.03;4440140;32;19981;-88
2022/01/15 00:55:36;;;;;;;;;;;;;;;4.66;59.44;100671.31;4439966;32;19996;-89
2022/01/15 00:58:01;;;;;;;;;;;;;;;4.65;59.44;100668.72;4453485;32;20010;-90
2022/01/15 01:00:27;;;;;;;;;;;;;;;4.66;59.44;100679.06;4440437;32;19997;-89
2022/01/15 01:02:52;;;;;;;;;;;;;;;4.61;59.44;100683.31;4440409;32;20072;-90
2022/01/15 01:05:18;;;;;;;;;;;;;;;4.51;59.43;100661.78;4440415;32;20026;-88
2022/01/15 01:07:43;;;;;;;;;;;;;;;4.56;59.43;100693.59;4440728;32;20008;-90
2022/01/15 01:11:11;;;;;;;;;;;;;;;4.49;59.44;100698.69;4440579;32;20001;-90
2022/01/15 01:23:24;;;;;;;;;;;;;;;4.43;59.43;100724.41;4453150;32;19981;-89
2022/01/15 01:25:54;;;;;;;;;;;;;;;4.44;59.43;100711.53;4454211;32;19988;-88
2022/01/15 01:28:27;;;;;;;;;;;;;;;4.60;59.44;100718.56;4442932;32;20015;-89
2022/01/15 01:30:59;;;;;;;;;;;;;;;4.61;59.43;100709.09;4443079;32;20692;-89
2022/01/15 01:36:04;;;;;;;;;;;;;;;4.49;59.42;100725.31;4455475;32;20003;-89
2022/01/15 01:38:38;;;;;;;;;;;;;;;4.62;59.43;100727.16;4444036;32;19999;-90
2022/01/15 01:41:06;;;;;;;;;;;;;;;4.61;59.43;100715.13;4456858;32;20014;-90
2022/01/15 01:46:12;;;;;;;;;;;;;;;4.45;59.42;100713.28;4456611;32;20000;-89
2022/01/15 01:48:37;;;;;;;;;;;;;;;4.46;59.42;100704.69;4444258;32;20386;-90
2022/01/15 01:51:03;;;;;;;;;;;;;;;4.32;59.42;100701.16;4456567;32;19993;-91
2022/01/15 01:53:28;;;;;;;;;;;;;;;4.38;59.42;100692.59;4443629;32;19987;-90
2022/01/15 01:55:54;;;;;;;;;;;;;;;4.36;59.42;100687.44;4455395;32;20026;-89
2022/01/15 01:58:19;;;;;;;;;;;;;;;4.16;59.41;100678.66;4456663;32;20356;-91
2022/01/15 02:00:44;;;;;;;;;;;;;;;4.26;59.41;100681.34;4458865;32;19984;-95
2022/01/15 02:03:09;;;;;;;;;;;;;;;4.30;59.42;100685.66;4458829;32;20019;-95
2022/01/15 02:05:35;;;;;;;;;;;;;;;4.35;59.41;100690.00;4458996;32;20023;-94
2022/01/15 02:08:00;;;;;;;;;;;;;;;4.40;59.42;100686.59;4458607;32;20027;-94
2022/01/15 02:10:25;;;;;;;;;;;;;;;4.30;59.42;100687.38;4458842;32;19988;-93
2022/01/15 02:12:50;;;;;;;;;;;;;;;4.41;59.42;100696.06;4459284;32;20307;-96
2022/01/15 02:15:17;;;;;;;;;;;;;;;4.43;59.43;100689.19;4459494;32;20060;-94
2022/01/15 02:17:43;;;;;;;;;;;;;;;4.38;59.42;100698.63;4446650;32;19993;-92
2022/01/15 02:20:33;;;;;;;;;;;;;;;4.37;59.43;100698.59;4445119;32;19997;-93
2022/01/15 02:25:43;;;;;;;;;;;;;;;4.32;59.42;100699.44;4460187;32;20698;-93
2022/01/15 02:28:08;;;;;;;;;;;;;;;4.27;59.42;100703.69;4445362;32;19993;-92
2022/01/15 02:30:33;;;;;;;;;;;;;;;4.28;59.42;100701.97;4457451;32;19989;-94
2022/01/15 02:32:59;;;;;;;;;;;;;;;4.22;59.41;100702.75;4458397;32;19993;-93
2022/01/15 02:35:24;;;;;;;;;;;;;;;4.28;59.42;100704.56;4458088;32;20003;-93
2022/01/15 02:37:49;;;;;;;;;;;;;;;4.37;59.43;100707.19;4457939;32;19997;-93
2022/01/15 02:40:14;;;;;;;;;;;;;;;4.26;59.41;100709.69;4458085;32;20040;-92
2022/01/15 02:42:40;;;;;;;;;;;;;;;4.11;59.41;100706.09;4457858;32;20310;-94
2022/01/15 02:45:08;;;;;;;;;;;;;;;4.16;59.41;100700.12;4457812;32;20045;-94
2022/01/15 02:50:17;;;;;;;;;;;;;;;4.06;59.40;100703.50;4460137;32;19999;-93
2022/01/15 02:52:42;;;;;;;;;;;;;;;4.03;59.40;100700.88;4457936;32;20001;-91
2022/01/15 02:55:07;;;;;;;;;;;;;;;3.97;59.39;100709.41;4457343;32;19976;-90
2022/01/15 02:57:33;;;;;;;;;;;;;;;4.04;59.40;100700.03;4443322;32;20027;-90
2022/01/15 02:59:58;;;;;;;;;;;;;;;4.05;59.40;100700.91;4456623;32;20359;-91
2022/01/15 03:02:23;;;;;;;;;;;;;;;3.91;59.40;100693.03;4456720;32;23009;-91
2022/01/15 03:04:49;;;;;;;;;;;;;;;3.85;59.39;100698.97;4456576;32;19992;-92
2022/01/15 03:07:14;;;;;;;;;;;;;;;3.74;59.39;100691.97;4455559;32;19995;-92
2022/01/15 03:09:40;;;;;;;;;;;;;;;3.78;59.39;100686.00;4455605;32;20004;-91
2022/01/15 03:12:06;;;;;;;;;;;;;;;3.77;59.39;100685.16;4442844;32;20040;-91
2022/01/15 03:14:31;;;;;;;;;;;;;;;3.65;59.38;100682.44;4442495;32;19992;-91
2022/01/15 03:16:57;;;;;;;;;;;;;;;3.67;59.38;100680.75;4455540;32;19993;-92
2022/01/15 03:19:22;;;;;;;;;;;;;;;3.60;59.38;100673.81;4455576;32;20243;-91
2022/01/15 03:21:47;;;;;;;;;;;;;;;3.43;59.37;100672.75;4455920;32;20021;-92
2022/01/15 03:24:12;;;;;;;;;;;;;;;3.38;59.36;100670.13;4457246;32;19976;-91
2022/01/15 03:26:38;;;;;;;;;;;;;;;3.50;59.37;100671.97;4454030;32;20057;-93
2022/01/15 03:29:03;;;;;;;;;;;;;;;3.37;59.36;100676.12;4441878;32;19999;-93
2022/01/15 03:31:28;;;;;;;;;;;;;;;3.42;59.37;100676.19;4441157;32;19981;-92
2022/01/15 03:33:54;;;;;;;;;;;;;;;3.50;59.37;100692.56;4440688;32;20019;-91
2022/01/15 03:36:19;;;;;;;;;;;;;;;3.48;59.37;100679.69;4440534;32;20258;-93
2022/01/15 03:38:44;;;;;;;;;;;;;;;3.67;59.37;100686.78;4441527;32;20083;-94
2022/01/15 03:41:09;;;;;;;;;;;;;;;3.63;59.38;100692.75;4442201;32;19977;-93
2022/01/15 03:43:35;;;;;;;;;;;;;;;3.73;59.38;100688.53;4441949;32;20004;-93
2022/01/15 03:46:00;;;;;;;;;;;;;;;3.76;59.39;100693.72;4441685;32;20039;-92
2022/01/15 03:48:25;;;;;;;;;;;;;;;3.84;59.39;100688.66;4441849;32;20380;-93
2022/01/15 03:50:51;;;;;;;;;;;;;;;3.74;59.38;100690.25;4440476;32;20306;-91
2022/01/15 03:53:16;;;;;;;;;;;;;;;3.88;59.39;100691.28;4440422;32;20004;-91
2022/01/15 03:55:41;;;;;;;;;;;;;;;3.83;59.40;100698.09;4453243;32;19997;-92
2022/01/15 03:58:07;;;;;;;;;;;;;;;3.75;59.38;100704.87;4440611;32;20371;-92
2022/01/15 04:00:32;;;;;;;;;;;;;;;3.83;59.38;100705.84;4441492;32;20277;-94
2022/01/15 04:02:57;;;;;;;;;;;;;;;3.72;59.39;100712.56;4440954;32;20401;-93
2022/01/15 04:05:22;;;;;;;;;;;;;;;3.77;59.39;100718.63;4441437;32;20030;-93
2022/01/15 04:07:47;;;;;;;;;;;;;;;3.83;59.40;100723.88;4453525;32;19985;-92
2022/01/15 04:10:13;;;;;;;;;;;;;;;3.80;59.39;100726.41;4440559;32;20001;-92
2022/01/15 04:12:38;;;;;;;;;;;;;;;3.83;59.38;100729.00;4440049;32;19985;-90
2022/01/15 04:15:04;;;;;;;;;;;;;;;3.87;59.39;100737.63;4439517;32;19997;-90
2022/01/15 04:17:29;;;;;;;;;;;;;;;3.88;59.39;100742.78;4451828;32;20048;-90
2022/01/15 04:19:55;;;;;;;;;;;;;;;3.95;59.40;100734.28;4439286;32;20021;-89
2022/01/15 04:22:21;;;;;;;;;;;;;;;4.21;59.41;100737.12;4440607;32;20042;-90
2022/01/15 04:24:46;;;;;;;;;;;;;;;4.06;59.41;100736.13;4440503;32;20024;-88
2022/01/15 04:27:11;;;;;;;;;;;;;;;3.83;59.38;100733.31;4440451;32;20001;-89
2022/01/15 04:29:36;;;;;;;;;;;;;;;3.88;59.39;100740.22;4453927;32;19993;-90
2022/01/15 04:32:02;;;;;;;;;;;;;;;3.85;59.40;100745.34;4441342;32;20049;-90
2022/01/15 04:34:28;;;;;;;;;;;;;;;3.91;59.40;100750.56;4454354;32;20610;-91
2022/01/15 04:36:56;;;;;;;;;;;;;;;3.84;59.39;100759.06;4442037;32;20255;-93
2022/01/15 04:39:22;;;;;;;;;;;;;;;3.88;59.38;100758.25;4443318;32;19981;-92
2022/01/15 04:41:57;;;;;;;;;;;;;;;3.98;59.40;100762.63;4442390;32;20832;-90
2022/01/15 04:44:22;;;;;;;;;;;;;;;3.82;59.38;100750.47;4442968;32;19996;-91
2022/01/15 04:46:47;;;;;;;;;;;;;;;3.75;59.38;100747.78;4442909;32;20004;-91
2022/01/15 04:49:12;;;;;;;;;;;;;;;3.58;59.37;100751.03;4442703;32;19976;-92
2022/01/15 04:54:37;;;;;;;;;;;;;;;3.86;59.40;100752.22;5160338;26;19940;-90
2022/01/15 04:57:02;;;;;;;;;;;;;;;3.68;59.39;100755.44;4457057;32;20009;-92
2022/01/15 04:59:27;;;;;;;;;;;;;;;3.63;59.38;100759.69;4445230;32;20405;-91
2022/01/15 05:01:52;;;;;;;;;;;;;;;3.71;59.38;100762.34;4444735;32;20237;-92
2022/01/15 05:04:18;;;;;;;;;;;;;;;3.63;59.38;100754.53;4445520;32;20019;-93
2022/01/15 05:06:43;;;;;;;;;;;;;;;3.68;59.38;100754.56;4445565;32;19988;-89
2022/01/15 05:09:08;;;;;;;;;;;;;;;3.74;59.39;100751.19;4458791;32;20254;-92
2022/01/15 05:11:45;;;;;;;;;;;;;;;3.85;59.40;100755.66;4445536;32;20041;-92
2022/01/15 05:14:11;;;;;;;;;;;;;;;3.66;59.38;100754.56;4458453;32;19987;-91
2022/01/15 05:16:37;;;;;;;;;;;;;;;3.52;59.37;100758.66;4445066;32;20031;-90
2022/01/15 05:19:03;;;;;;;;;;;;;;;3.77;59.39;100764.97;4457655;32;19981;-90
2022/01/15 05:21:28;;;;;;;;;;;;;;;3.75;59.38;100764.09;4457106;32;19989;-91
2022/01/15 05:23:53;;;;;;;;;;;;;;;3.78;59.39;100756.41;4444205;32;20001;-91
2022/01/15 05:26:18;;;;;;;;;;;;;;;3.75;59.38;100756.38;4443504;32;20020;-91
2022/01/15 05:28:43;;;;;;;;;;;;;;;3.80;59.39;100756.44;4456558;32;20015;-91
2022/01/15 05:31:09;;;;;;;;;;;;;;;3.92;59.40;100751.41;4443830;32;19977;-91
2022/01/15 05:33:34;;;;;;;;;;;;;;;3.90;59.39;100753.13;4457109;32;20021;-89
2022/01/15 05:36:00;;;;;;;;;;;;;;;3.79;59.39;100752.16;4443825;32;20335;-90
2022/01/15 05:38:25;;;;;;;;;;;;;;;3.73;59.39;100754.63;4443978;32;19991;-91
2022/01/15 05:40:50;;;;;;;;;;;;;;;3.83;59.38;100752.19;4443225;32;20028;-90
2022/01/15 05:43:16;;;;;;;;;;;;;;;3.74;59.38;100744.34;4432408;32;20017;-90
2022/01/15 05:45:41;;;;;;;;;;;;;;;3.69;59.38;100758.87;4441067;32;20009;-91
2022/01/15 05:48:06;;;;;;;;;;;;;;;3.62;59.38;100763.09;4441357;32;19981;-90
2022/01/15 05:50:31;;;;;;;;;;;;;;;3.65;59.38;100773.44;4441175;32;19982;-91
2022/01/15 05:52:58;;;;;;;;;;;;;;;3.59;59.37;100782.78;4440539;32;20090;-92
2022/01/15 05:55:24;;;;;;;;;;;;;;;3.74;59.38;100784.69;4435726;32;20035;-91
2022/01/15 05:57:49;;;;;;;;;;;;;;;3.75;59.38;100781.25;4422771;32;20045;-91
2022/01/15 06:00:14;;;;;;;;;;;;;;;3.82;59.39;100788.22;4422910;32;19997;-88
2022/01/15 06:02:39;;;;;;;;;;;;;;;3.88;59.39;100783.13;4423213;32;20009;-91
2022/01/15 06:05:05;;;;;;;;;;;;;;;3.86;59.39;100783.13;4422710;32;19977;-91
2022/01/15 06:07:30;;;;;;;;;;;;;;;3.75;59.38;100794.13;4423037;32;20004;-90
2022/01/15 06:09:55;;;;;;;;;;;;;;;3.85;59.39;100798.56;4435988;32;20364;-91
2022/01/15 06:12:28;;;;;;;;;;;;;;;3.83;59.38;100798.53;4424720;32;20195;-93
2022/01/15 06:14:53;;;;;;;;;;;;;;;3.70;59.39;100802.66;4423996;32;20009;-91
2022/01/15 06:17:18;;;;;;;;;;;;;;;3.73;59.38;100801.84;4423611;32;19986;-90
2022/01/15 06:19:43;;;;;;;;;;;;;;;3.83;59.38;100805.41;4423307;32;20001;-91
2022/01/15 06:22:09;;;;;;;;;;;;;;;3.94;59.40;100819.25;4436384;32;19989;-90
2022/01/15 06:24:34;;;;;;;;;;;;;;;3.84;59.39;100820.00;4423507;32;19989;-91
2022/01/15 06:26:59;;;;;;;;;;;;;;;3.60;59.37;100816.28;4423355;32;19989;-92
2022/01/15 06:29:24;;;;;;;;;;;;;;;3.69;59.39;100815.53;4423493;32;19982;-91
2022/01/15 06:31:50;;;;;;;;;;;;;;;3.74;59.38;100816.44;4423884;32;20331;-91
2022/01/15 06:34:15;;;;;;;;;;;;;;;3.83;59.38;100815.72;4423884;32;20338;-92
2022/01/15 06:36:40;;;;;;;;;;;;;;;3.79;59.39;100819.09;4423201;32;20020;-91
2022/01/15 06:39:05;;;;;;;;;;;;;;;3.69;59.38;100818.09;4422621;32;20019;-91
2022/01/15 06:41:30;;;;;;;;;;;;;;;3.84;59.40;100810.56;4422229;32;20035;-91
2022/01/15 06:43:56;;;;;;;;;;;;;;;3.77;59.39;100819.06;4421935;32;20011;-90
2022/01/15 06:46:21;;;;;;;;;;;;;;;3.89;59.39;100819.22;4435313;32;20025;-90
2022/01/15 06:48:46;;;;;;;;;;;;;;;3.99;59.40;100812.44;4435302;32;20321;-89
2022/01/15 06:51:11;;;;;;;;;;;;;;;3.84;59.39;100818.31;4421905;32;20032;-90
2022/01/15 06:53:37;;;;;;;;;;;;;;;3.82;59.39;100822.56;4423050;32;20008;-92
2022/01/15 06:56:02;;;;;;;;;;;;;;;3.94;59.39;100827.84;4433070;32;20001;-91
2022/01/15 06:58:27;;;;;;;;;;;;;;;4.13;59.41;100823.78;4425988;32;20005;-93
2022/01/15 07:00:52;;;;;;;;;;;;;;;4.11;59.41;100833.22;4438676;32;20337;-91
2022/01/15 07:03:18;;;;;;;;;;;;;;;4.01;59.40;100828.78;4426339;32;19985;-92
2022/01/15 07:05:43;;;;;;;;;;;;;;;4.07;59.40;100823.72;4425354;32;20052;-90
2022/01/15 07:08:08;;;;;;;;;;;;;;;3.92;59.40;100828.69;4437954;32;20005;-91
2022/01/15 07:10:34;;;;;;;;;;;;;;;3.99;59.40;100831.34;4424862;32;19989;-89
2022/01/15 07:12:59;;;;;;;;;;;;;;;3.99;59.40;100833.91;4425476;32;20236;-91
2022/01/15 07:15:24;;;;;;;;;;;;;;;4.00;59.40;100832.22;4425901;32;20262;-90
2022/01/15 07:17:49;;;;;;;;;;;;;;;3.92;59.40;100834.72;4425669;32;20037;-90
2022/01/15 07:20:15;;;;;;;;;;;;;;;4.02;59.40;100840.81;4425732;32;20058;-92
2022/01/15 07:22:40;;;;;;;;;;;;;;;4.01;59.40;100844.25;4426165;32;20029;-91
2022/01/15 07:25:06;;;;;;;;;;;;;;;4.05;59.40;100845.19;4425915;32;19977;-91
2022/01/15 07:27:31;;;;;;;;;;;;;;;4.10;59.40;100848.66;4426219;32;20024;-92
2022/01/15 07:29:57;;;;;;;;;;;;;;;3.93;59.39;100854.47;4425723;32;20087;-92
2022/01/15 07:32:22;;;;;;;;;;;;;;;3.98;59.40;100842.50;4425560;32;20003;-90
2022/01/15 07:34:47;;;;;;;;;;;;;;;3.95;59.39;100854.47;4425629;32;19981;-93
2022/01/15 07:37:12;;;;;;;;;;;;;;;4.04;59.40;100843.44;4425309;32;20269;-92
2022/01/15 07:39:37;;;;;;;;;;;;;;;4.02;59.40;100853.69;4424790;32;20013;-92
2022/01/15 07:42:03;;;;;;;;;;;;;;;3.66;59.38;100861.84;4424752;32;20016;-90
2022/01/15 07:44:28;;;;;;;;;;;;;;;4.00;59.40;100855.41;4424975;32;19996;-91
2022/01/15 07:46:54;;;;;;;;;;;;;;;4.00;59.40;100856.25;4425562;32;20011;-92
2022/01/15 07:49:19;;;;;;;;;;;;;;;3.99;59.40;100861.41;4426041;32;20008;-93
2022/01/15 07:51:45;;;;;;;;;;;;;;;3.98;59.41;100868.25;4425868;32;20019;-92
2022/01/15 07:54:10;;;;;;;;;;;;;;;4.13;59.41;100869.31;4425649;32;19989;-92
2022/01/15 07:56:35;;;;;;;;;;;;;;;4.17;59.41;100873.66;4424657;32;20001;-91
2022/01/15 07:59:00;;;;;;;;;;;;;;;4.31;59.41;100872.97;4424678;32;20013;-91
2022/01/15 08:01:27;;;;;;;;;;;;;;;4.48;59.43;100878.28;4424708;32;20012;-92
2022/01/15 08:03:53;;;;;;;;;;;;;;;4.57;59.43;100873.25;4425175;32;20350;-91
2022/01/15 08:06:18;;;;;;;;;;;;;;;4.58;59.43;100882.72;4423094;32;20042;-92
2022/01/15 08:08:43;;;;;;;;;;;;;;;4.58;59.43;100874.97;4423414;32;20677;-90
2022/01/15 08:11:08;;;;;;;;;;;;;;;4.72;59.44;100882.84;4436672;32;19989;-91
2022/01/15 08:13:34;;;;;;;;;;;;;;;4.57;59.42;100885.28;4422809;32;19997;-88
2022/01/15 08:16:01;;;;;;;;;;;;;;;4.62;59.43;100881.88;4423869;32;19978;-92
2022/01/15 08:18:26;;;;;;;;;;;;;;;4.57;59.44;100891.28;4423781;32;19997;-90
2022/01/15 08:20:52;;;;;;;;;;;;;;;4.70;59.44;100899.16;4423375;32;20035;-89
2022/01/15 08:23:17;;;;;;;;;;;;;;;4.68;59.44;100891.41;4423106;32;19981;-89
2022/01/15 08:25:42;;;;;;;;;;;;;;;4.73;59.44;100888.84;4423210;32;19973;-89
2022/01/15 08:28:07;;;;;;;;;;;;;;;4.83;59.45;100888.97;4423393;32;20345;-91
2022/01/15 08:30:33;;;;;;;;;;;;;;;5.02;59.46;100894.31;4423548;32;20048;-92
2022/01/15 08:32:58;;;;;;;;;;;;;;;5.08;59.45;100897.81;4423342;32;19993;-91
2022/01/15 08:35:23;;;;;;;;;;;;;;;4.98;59.46;100900.31;4436562;32;19989;-92
2022/01/15 08:37:48;;;;;;;;;;;;;;;5.25;59.47;100887.63;4423862;32;20074;-91
2022/01/15 08:40:14;;;;;;;;;;;;;;;5.42;59.48;100887.72;4423794;32;20135;-91
2022/01/15 08:42:39;;;;;;;;;;;;;;;5.52;59.48;100889.53;4436431;32;20005;-91
2022/01/15 08:45:05;;;;;;;;;;;;;;;5.27;59.47;100883.34;4423918;32;19985;-92
2022/01/15 08:47:30;;;;;;;;;;;;;;;5.46;59.49;100887.78;4436485;32;19998;-91
2022/01/15 08:49:56;;;;;;;;;;;;;;;5.62;59.49;100878.41;4422915;32;20099;-91
2022/01/15 08:52:21;;;;;;;;;;;;;;;5.49;59.48;100881.78;4423238;32;20044;-91
2022/01/15 08:54:46;;;;;;;;;;;;;;;5.64;59.49;100886.16;4427193;32;20345;-90
2022/01/15 08:57:11;;;;;;;;;;;;;;;5.61;59.50;100884.41;4441527;32;20024;-90
2022/01/15 08:59:37;;;;;;;;;;;;;;;5.40;59.49;100886.84;4441278;32;20025;-92
2022/01/15 09:02:02;;;;;;;;;;;;;;;5.36;59.47;100877.37;4441270;32;19996;-90
2022/01/15 09:04:27;;;;;;;;;;;;;;;5.43;59.48;100881.72;4441034;32;19993;-90
2022/01/15 09:06:53;;;;;;;;;;;;;;;5.51;59.48;100885.22;4440729;32;20232;-92
2022/01/15 09:09:18;;;;;;;;;;;;;;;5.57;59.49;100882.69;4441419;32;20270;-90
2022/01/15 09:11:43;;;;;;;;;;;;;;;5.75;59.49;100885.38;4440553;32;20026;-90
2022/01/15 09:14:10;;;;;;;;;;;;;;;5.97;59.51;100888.13;4440191;32;19997;-92
2022/01/15 09:16:35;;;;;;;;;;;;;;;5.81;59.50;100884.53;4440512;32;20011;-90
2022/01/15 09:19:00;;;;;;;;;;;;;;;5.80;59.50;100872.47;4439617;32;20033;-91
2022/01/15 09:21:25;;;;;;;;;;;;;;;5.78;59.51;100882.81;4440477;32;19993;-89
2022/01/15 09:23:51;;;;;;;;;;;;;;;5.96;59.51;100882.09;4440304;32;20079;-90
2022/01/15 09:26:44;;;;;;;;;;;;;;;5.94;59.51;100878.63;4440464;32;20023;-89
2022/01/15 09:31:51;;;;;;;;;;;;;;;5.94;59.51;100857.09;4443351;32;19991;-89
2022/01/15 09:34:17;;;;;;;;;;;;;;;5.91;59.51;100880.31;4440825;32;20013;-89
2022/01/15 09:36:42;;;;;;;;;;;;;;;5.95;59.51;100870.03;4440760;32;20046;-92
2022/01/15 09:39:07;;;;;;;;;;;;;;;5.99;59.51;100865.72;4440414;32;19990;-90
2022/01/15 09:41:32;;;;;;;;;;;;;;;6.01;59.51;100869.19;4440845;32;20011;-90
2022/01/15 09:43:57;;;;;;;;;;;;;;;6.05;59.51;100866.59;4440749;32;20011;-91
2022/01/15 09:46:23;;;;;;;;;;;;;;;6.08;59.52;100870.91;4440507;32;20349;-88
2022/01/15 09:48:48;;;;;;;;;;;;;;;6.15;59.52;100859.75;4440414;32;20016;-90
2022/01/15 09:51:13;;;;;;;;;;;;;;;6.26;59.52;100858.06;4440758;32;20029;-89
2022/01/15 09:53:38;;;;;;;;;;;;;;;6.19;59.52;100843.41;4440723;32;20029;-90
2022/01/15 09:56:06;;;;;;;;;;;;;;;6.29;59.53;100842.56;4440700;32;20353;-90
2022/01/15 09:58:31;;;;;;;;;;;;;;;6.06;59.52;100844.22;4441298;32;20319;-88
2022/01/15 10:00:57;;;;;;;;;;;;;;;6.00;59.51;100842.47;4441224;32;19993;-90
2022/01/15 10:03:22;;;;;;;;;;;;;;;6.04;59.51;100857.13;4440513;32;20262;-89
2022/01/15 10:05:49;;;;;;;;;;;;;;;6.09;59.52;100839.91;4440421;32;20309;-90
2022/01/15 10:08:19;;;;;;;;;;;;;;;6.25;59.53;100847.72;4441024;32;20012;-89
2022/01/15 10:10:49;;;;;;;;;;;;;;;6.29;59.53;100844.28;4454059;32;20026;-89
2022/01/15 10:13:21;;;;;;;;;;;;;;;6.31;59.53;100838.25;4440777;32;20655;-88
2022/01/15 10:15:59;;;;;;;;;;;;;;;6.35;59.54;100847.75;4441384;32;20011;-90
2022/01/15 10:18:25;;;;;;;;;;;;;;;6.35;59.54;100836.53;4439271;32;20361;-92
2022/01/15 10:20:51;;;;;;;;;;;;;;;6.29;59.53;100841.69;4440207;32;19995;-90
2022/01/15 10:23:17;;;;;;;;;;;;;;;6.53;59.54;100852.09;4440476;32;20377;-91
2022/01/15 10:25:42;;;;;;;;;;;;;;;6.52;59.54;100837.44;4440558;32;20052;-91
2022/01/15 10:28:09;;;;;;;;;;;;;;;6.67;59.56;100834.91;4440217;32;19993;-89
2022/01/15 10:30:34;;;;;;;;;;;;;;;6.80;59.55;100840.06;4440511;32;20041;-90
2022/01/15 10:33:00;;;;;;;;;;;;;;;6.64;59.54;100839.19;4439880;32;20302;-91
2022/01/15 10:35:27;;;;;;;;;;;;;;;6.62;59.54;100838.31;4440054;32;19996;-91
2022/01/15 10:37:57;;;;;;;;;;;;;;;6.52;59.54;100834.00;4440316;32;20054;-86
2022/01/15 10:40:27;;;;;;;;;;;;;;;6.47;59.53;100826.22;4440792;32;20028;-89
2022/01/15 10:42:56;;;;;;;;;;;;;;;6.72;59.55;100834.88;4440924;32;20090;-92
2022/01/15 10:45:22;;;;;;;;;;;;;;;6.86;59.56;100859.06;4440668;32;20025;-90
2022/01/15 10:47:49;;;;;;;;;;;;;;;7.00;59.57;100835.75;4439988;32;20232;-91
2022/01/15 10:50:18;;;;;;;;;;;;;;;7.13;59.57;100827.13;4440479;32;20000;-90
2022/01/15 10:52:43;;;;;;;;;;;;;;;7.40;59.59;100823.66;4440095;32;19984;-90
2022/01/15 10:55:12;;;;;;;;;;;;;;;7.39;59.58;100820.19;4440137;32;19985;-91
2022/01/15 10:57:47;;;;;;;;;;;;;;;7.61;59.60;100807.19;4440592;32;19993;-90
2022/01/15 11:00:13;;;;;;;;;;;;;;;7.51;59.60;100821.03;4440247;32;19981;-92
2022/01/15 11:02:39;;;;;;;;;;;;;;;7.48;59.60;100816.72;4441055;32;20053;-92
2022/01/15 11:05:18;;;;;;;;;;;;;;;7.32;59.58;100810.69;4440921;32;20015;-92
2022/01/15 11:07:43;;;;;;;;;;;;;;;7.43;59.59;100815.88;4440003;32;20011;-91
2022/01/15 11:10:08;;;;;;;;;;;;;;;7.38;59.59;100807.25;4440523;32;19980;-90
2022/01/15 11:12:34;;;;;;;;;;;;;;;7.18;59.59;100806.41;4440557;32;20026;-93
2022/01/15 11:14:59;;;;;;;;;;;;;;;7.14;59.58;100797.78;4440130;32;20005;-92
2022/01/15 11:17:24;;;;;;;;;;;;;;;7.12;59.58;100814.19;4441074;32;20366;-93
2022/01/15 11:19:50;;;;;;;;;;;;;;;7.18;59.58;100794.31;4440234;32;19992;-93
2022/01/15 11:22:17;;;;;;;;;;;;;;;7.24;59.58;100798.63;4440501;32;19977;-92
2022/01/15 11:24:42;;;;;;;;;;;;;;;7.22;59.58;100800.38;4440451;32;20337;-94
2022/01/15 11:27:09;;;;;;;;;;;;;;;7.21;59.58;100802.09;4440805;32;20030;-93
2022/01/15 11:29:35;;;;;;;;;;;;;;;7.33;59.59;100791.72;4440339;32;19985;-91
2022/01/15 11:32:00;;;;;;;;;;;;;;;7.32;59.58;100794.28;4440633;32;19977;-91
2022/01/15 11:34:26;;;;;;;;;;;;;;;7.38;59.59;100791.72;4440083;32;20038;-88
2022/01/15 11:36:52;;;;;;;;;;;;;;;7.14;59.57;100778.81;4440383;32;20033;-94
2022/01/15 11:39:21;;;;;;;;;;;;;;;7.23;59.58;100799.50;4440015;32;19996;-92
2022/01/15 11:41:49;;;;;;;;;;;;;;;7.28;59.58;100800.34;4440033;32;20045;-91
2022/01/15 11:44:18;;;;;;;;;;;;;;;7.14;59.57;100809.87;4440002;32;19973;-90
2022/01/15 11:46:50;;;;;;;;;;;;;;;7.25;59.59;100805.53;4439741;32;19997;-94
2022/01/15 11:49:28;;;;;;;;;;;;;;;7.20;59.58;100813.31;4440571;32;20015;-92
2022/01/15 11:51:54;;;;;;;;;;;;;;;7.24;59.57;100809.00;4454095;32;20326;-92
2022/01/15 11:54:19;;;;;;;;;;;;;;;7.36;59.59;100796.03;4439987;32;19985;-90
2022/01/15 11:56:48;;;;;;;;;;;;;;;7.39;59.58;100789.13;4434736;32;19990;-91
2022/01/15 11:59:23;;;;;;;;;;;;;;;7.47;59.58;100790.81;4421534;32;20041;-91
2022/01/15 12:01:49;;;;;;;;;;;;;;;7.39;59.58;100793.44;4422003;32;20040;-91
2022/01/15 12:04:25;;;;;;;;;;;;;;;7.61;59.59;100787.31;4434770;32;20021;-92
2022/01/15 12:07:05;;;;;;;;;;;;;;;7.75;59.61;100782.06;4421866;32;19990;-89
2022/01/15 12:09:38;;;;;;;;;;;;;;;7.58;59.60;100783.88;4421693;32;20008;-91
2022/01/15 12:12:31;;;;;;;;;;;;;;;7.66;59.60;100776.94;4423137;32;19978;-91
2022/01/15 12:14:56;;;;;;;;;;;;;;;7.41;59.59;100791.69;4419573;32;20005;-90
2022/01/15 12:17:22;;;;;;;;;;;;;;;7.63;59.61;100784.72;4421316;32;20026;-91
2022/01/15 12:19:47;;;;;;;;;;;;;;;7.53;59.59;100772.66;4433787;32;19973;-90
2022/01/15 12:22:32;;;;;;;;;;;;;;;7.63;59.61;100774.38;4421636;32;20036;-91
2022/01/15 12:24:57;;;;;;;;;;;;;;;7.26;59.58;100786.53;4434446;32;19958;-91
2022/01/15 12:27:25;;;;;;;;;;;;;;;7.48;59.60;100797.72;4420828;32;20001;-91
2022/01/15 12:29:56;;;;;;;;;;;;;;;7.36;59.59;100791.72;4434268;32;19978;-90
2022/01/15 12:32:28;;;;;;;;;;;;;;;7.29;59.58;100789.13;4434668;32;19969;-92
2022/01/15 12:34:54;;;;;;;;;;;;;;;7.31;59.58;100779.63;4434422;32;19993;-91
2022/01/15 12:37:22;;;;;;;;;;;;;;;7.30;59.58;100788.25;4434911;32;20398;-92
2022/01/15 12:39:47;;;;;;;;;;;;;;;7.25;59.59;100774.47;4422336;32;19949;-91
2022/01/15 12:42:13;;;;;;;;;;;;;;;7.29;59.58;100763.22;4423591;32;20057;-92
2022/01/15 12:44:45;;;;;;;;;;;;;;;7.54;59.59;100754.50;4423630;32;20338;-93
2022/01/15 12:47:10;;;;;;;;;;;;;;;7.60;59.60;100748.47;4435865;32;20002;-91
2022/01/15 12:49:39;;;;;;;;;;;;;;;7.44;59.59;100744.19;4423676;32;20276;-91
2022/01/15 12:52:16;;;;;;;;;;;;;;;7.24;59.58;100752.88;4436401;32;20629;-90
2022/01/15 12:54:41;;;;;;;;;;;;;;;6.90;59.57;100746.91;4437084;32;19986;-91
2022/01/15 12:57:07;;;;;;;;;;;;;;;7.09;59.57;100750.31;4439676;32;20067;-92
2022/01/15 12:59:36;;;;;;;;;;;;;;;7.14;59.57;100747.75;4441751;32;20314;-91
2022/01/15 13:02:02;;;;;;;;;;;;;;;7.31;59.58;100746.81;4441961;32;20270;-93
2022/01/15 13:04:27;;;;;;;;;;;;;;;7.09;59.58;100730.47;4441770;32;20008;-92
2022/01/15 13:06:59;;;;;;;;;;;;;;;7.15;59.57;100744.28;4441904;32;19993;-93
2022/01/15 13:09:37;;;;;;;;;;;;;;;7.27;59.58;100749.41;4441683;32;20041;-91
2022/01/15 13:12:03;;;;;;;;;;;;;;;7.32;59.58;100729.53;4441810;32;20000;-91